Time;durP1;ratioP1;P1;durP2;ratioP2;P2;SDS_P1;SDS_P2;PMS_P1;PMS_P2;Temp;Humidity;BMP_temperature;BMP_pressure;BME280_temperature;BME280_humidity;BME280_pressure;Samples;Min_cycle;Max_cycle;Signal;HPM_P1;HPM_P2
2022/02/17 00:00:58;;;;;;;;;0.00;0.00;;;;;-147.17;100.00;49596.03;4991330;28;51020;-61
2022/02/17 00:03:24;;;;;;;;;0.00;0.00;;;;;-147.17;100.00;49599.97;4972769;28;52580;-61
2022/02/17 00:05:50;;;;;;;;;0.00;0.00;;;;;-147.17;100.00;49615.72;4986914;28;51558;-60
2022/02/17 00:08:16;;;;;;;;;0.00;0.00;;;;;-147.17;100.00;49605.88;4971228;28;51133;-60
2022/02/17 00:10:42;;;;;;;;;0.00;0.00;;;;;-147.17;100.00;49572.41;4981631;28;51482;-61
2022/02/17 00:13:07;;;;;;;;;0.00;0.00;;;;;-147.17;100.00;49619.66;4990487;28;51884;-61
2022/02/17 00:15:33;;;;;;;;;0.00;0.00;;;;;-147.17;100.00;49599.97;4988699;28;51192;-61
2022/02/17 00:17:59;;;;;;;;;0.00;0.00;;;;;-147.17;100.00;49619.66;4969607;28;51311;-61
2022/02/17 00:20:26;;;;;;;;;0.00;0.00;;;;;-147.17;100.00;49570.44;4988705;28;51177;-60
2022/02/17 00:22:51;;;;;;;;;0.00;0.00;;;;;-147.17;100.00;49592.09;4987259;28;51627;-60
2022/02/17 00:25:17;;;;;;;;;0.00;0.00;;;;;-147.17;100.00;49588.16;4991566;28;51163;-60
2022/02/17 00:27:44;;;;;;;;;0.00;0.00;;;;;-147.17;100.00;49584.22;4992331;28;51157;-60
2022/02/17 00:30:10;;;;;;;;;0.00;0.00;;;;;-147.17;100.00;49582.25;4992359;28;51159;-60
2022/02/17 00:32:37;;;;;;;;;3.00;3.00;;;;;-147.17;100.00;49499.59;4992281;28;52318;-60
2022/02/17 00:35:04;;;;;;;;;0.00;0.00;;;;;-147.17;100.00;49489.75;4993318;28;51189;-59
2022/02/17 00:37:29;;;;;;;;;0.00;0.00;;;;;-147.17;100.00;49544.88;4988471;28;51192;-59
2022/02/17 00:39:55;;;;;;;;;0.33;0.00;;;;;-147.17;100.00;49560.59;4986797;28;51329;-60
2022/02/17 00:42:21;;;;;;;;;0.00;0.00;;;;;-147.17;100.00;49521.25;4992348;28;52165;-60
2022/02/17 00:44:49;;;;;;;;;1.33;0.00;;;;;-147.17;100.00;49560.59;4992800;28;51112;-60
2022/02/17 00:47:15;;;;;;;;;0.00;0.00;;;;;-147.17;100.00;49491.72;4990581;28;50912;-60
2022/02/17 00:49:41;;;;;;;;;0.00;0.00;;;;;-147.17;100.00;49509.44;4990580;28;52147;-60
2022/02/17 00:52:07;;;;;;;;;0.00;0.00;;;;;-147.17;100.00;49501.56;4991699;28;54367;-59
2022/02/17 00:54:33;;;;;;;;;0.00;0.00;;;;;-147.17;100.00;49472.03;4991910;28;51555;-61
2022/02/17 00:56:58;;;;;;;;;0.00;0.00;;;;;-147.17;100.00;49505.50;4988586;28;52970;-61
2022/02/17 00:59:24;;;;;;;;;0.00;0.00;;;;;-147.17;100.00;49513.38;4990672;28;51179;-61
2022/02/17 01:01:49;;;;;;;;;0.00;0.00;;;;;-147.17;100.00;49540.94;4989449;28;51715;-62
2022/02/17 01:04:17;;;;;;;;;0.00;0.00;;;;;-147.17;100.00;49493.69;4990499;28;51187;-60
2022/02/17 01:06:43;;;;;;;;;0.00;0.00;;;;;-147.17;100.00;49556.66;4987077;28;51230;-60
2022/02/17 01:09:10;;;;;;;;;0.00;0.00;;;;;-147.17;100.00;49533.06;4985417;28;51138;-61
2022/02/17 01:11:37;;;;;;;;;1.00;1.00;;;;;-147.17;100.00;49483.84;4988572;28;52927;-61
2022/02/17 01:14:04;;;;;;;;;1.00;1.00;;;;;-147.17;100.00;49521.25;4972828;28;51258;-60
2022/02/17 01:16:29;;;;;;;;;0.00;0.00;;;;;-147.17;100.00;49540.94;4961137;28;51205;-60
2022/02/17 01:18:55;;;;;;;;;0.33;0.33;;;;;-147.17;100.00;49556.66;4991590;28;51338;-59
2022/02/17 01:21:21;;;;;;;;;1.00;0.00;;;;;-147.17;100.00;49560.59;4987195;28;51130;-59
2022/02/17 01:23:46;;;;;;;;;0.00;0.00;;;;;-147.17;100.00;49540.94;4980704;28;51177;-60
2022/02/17 01:26:13;;;;;;;;;0.67;0.67;;;;;-147.17;100.00;49592.09;4985957;28;50969;-60
2022/02/17 01:28:39;;;;;;;;;0.00;0.00;;;;;-147.17;100.00;49613.75;4990281;28;52138;-60
2022/02/17 01:31:04;;;;;;;;;1.00;0.00;;;;;-147.17;100.00;49582.25;4990797;28;51803;-60
2022/02/17 01:33:29;;;;;;;;;0.00;0.00;;;;;-147.17;100.00;49603.91;4990147;28;51130;-60
2022/02/17 01:35:55;;;;;;;;;0.00;0.00;;;;;-147.17;100.00;49588.16;4990062;28;51133;-60
2022/02/17 01:38:21;;;;;;;;;0.00;0.00;;;;;-147.17;100.00;49598.00;4988968;28;51228;-60
2022/02/17 01:40:47;;;;;;;;;0.00;0.00;;;;;-147.17;100.00;49558.63;4988324;28;51199;-60
2022/02/17 01:43:16;;;;;;;;;0.00;0.00;;;;;-147.17;100.00;49529.13;4965475;28;51568;-60
2022/02/17 01:45:44;;;;;;;;;0.00;0.00;;;;;-147.17;100.00;49584.22;4974094;28;51513;-60
2022/02/17 01:48:10;;;;;;;;;1.00;0.00;;;;;-147.17;100.00;49564.53;4961681;28;51240;-60
2022/02/17 01:50:41;;;;;;;;;0.00;0.00;;;;;-147.17;100.00;49578.31;4990153;28;51856;-60
2022/02/17 01:53:11;;;;;;;;;0.00;0.00;;;;;-147.17;100.00;49603.91;4989944;28;51177;-60
2022/02/17 01:55:38;;;;;;;;;0.00;0.00;;;;;-147.17;100.00;49615.72;4986809;28;51459;-60
2022/02/17 01:58:04;;;;;;;;;0.00;0.00;;;;;-147.17;100.00;49613.75;4987352;28;51435;-61
2022/02/17 02:00:31;;;;;;;;;0.67;0.00;;;;;-147.17;100.00;49625.56;4985801;28;52494;-60
2022/02/17 02:02:57;;;;;;;;;1.00;1.00;;;;;-147.17;100.00;49676.72;4995128;28;51018;-60
2022/02/17 02:05:22;;;;;;;;;1.00;1.00;;;;;-147.17;100.00;49635.41;4988777;28;51283;-60
2022/02/17 02:07:47;;;;;;;;;0.00;0.00;;;;;-147.17;100.00;49706.25;4994182;28;50912;-60
2022/02/17 02:10:13;;;;;;;;;0.00;0.00;;;;;-147.17;100.00;49702.31;4958111;28;53736;-60
2022/02/17 02:12:38;;;;;;;;;0.00;0.00;;;;;-147.17;100.00;49753.50;4994169;28;50988;-60
2022/02/17 02:15:04;;;;;;;;;1.00;0.67;;;;;-147.17;100.00;49838.13;4992363;28;51104;-60
2022/02/17 02:17:31;;;;;;;;;2.67;2.00;;;;;-147.17;100.00;49820.41;4992570;28;51523;-59
2022/02/17 02:19:57;;;;;;;;;2.00;1.00;;;;;-147.17;100.00;49887.34;4988475;28;51315;-60
2022/02/17 02:22:24;;;;;;;;;1.33;1.00;;;;;-147.17;100.00;49910.97;4984658;28;51223;-60
2022/02/17 02:24:51;;;;;;;;;1.00;1.00;;;;;-147.17;100.00;49938.50;4984349;28;51947;-60
2022/02/17 02:27:16;;;;;;;;;3.00;2.00;;;;;-147.17;100.00;49954.25;4984923;28;51085;-61
2022/02/17 02:29:42;;;;;;;;;1.00;1.00;;;;;-147.17;100.00;49948.34;4993530;28;51185;-62
2022/02/17 02:32:09;;;;;;;;;2.33;1.33;;;;;-147.17;100.00;49983.78;4994050;28;50909;-61
2022/02/17 02:34:35;;;;;;;;;0.67;0.67;;;;;-147.17;100.00;49993.63;4995053;28;52025;-61
2022/02/17 02:37:03;;;;;;;;;1.33;0.67;;;;;-147.17;100.00;49958.19;4993198;28;51206;-60
2022/02/17 02:39:29;;;;;;;;;3.00;2.00;;;;;-147.17;100.00;49999.53;4992014;28;52578;-60
2022/02/17 02:41:54;;;;;;;;;2.00;1.00;;;;;-147.17;100.00;49958.19;4971850;28;51095;-59
2022/02/17 02:44:19;;;;;;;;;1.00;0.67;;;;;-147.17;100.00;49924.72;4996383;28;51154;-60
2022/02/17 02:46:45;;;;;;;;;2.00;1.00;;;;;-147.17;100.00;49944.41;4991858;28;51523;-60
2022/02/17 02:49:10;;;;;;;;;0.67;0.67;;;;;-147.17;100.00;49944.41;4974719;28;51455;-60
2022/02/17 02:51:35;;;;;;;;;2.67;0.00;;;;;-147.17;100.00;49993.63;4976504;28;51103;-61
2022/02/17 02:54:01;;;;;;;;;2.33;2.00;;;;;-147.17;100.00;49993.63;4994010;28;51106;-60
2022/02/17 02:56:26;;;;;;;;;2.00;1.00;;;;;-147.17;100.00;50092.03;4992644;28;51046;-59
2022/02/17 02:58:52;;;;;;;;;0.00;0.00;;;;;-147.17;100.00;50123.53;4992582;28;52465;-60
2022/02/17 03:01:20;;;;;;;;;1.00;1.00;;;;;-147.17;100.00;50155.03;4992394;28;51164;-60
2022/02/17 03:03:48;;;;;;;;;3.67;2.00;;;;;-147.17;100.00;50178.66;4992711;28;51250;-59
2022/02/17 03:06:14;;;;;;;;;4.00;2.00;;;;;-147.17;100.00;50200.31;4992730;28;51082;-59
2022/02/17 03:08:39;;;;;;;;;1.67;1.00;;;;;-147.17;100.00;50221.97;4991780;28;51688;-60
2022/02/17 03:11:05;;;;;;;;;2.00;1.33;;;;;-147.17;100.00;50202.28;4993295;28;51132;-59
2022/02/17 03:13:30;;;;;;;;;2.00;1.00;;;;;-147.17;100.00;50204.25;4990687;28;51540;-60
2022/02/17 03:15:55;;;;;;;;;4.00;2.00;;;;;-147.17;100.00;50265.28;4990660;28;51070;-60
2022/02/17 03:18:21;;;;;;;;;3.00;3.00;;;;;-147.17;100.00;50162.91;4989279;28;51218;-60
2022/02/17 03:20:46;;;;;;;;;1.00;1.00;;;;;-147.17;100.00;50221.97;4993553;28;51103;-59
2022/02/17 03:23:11;;;;;;;;;2.00;0.67;;;;;-147.17;100.00;50263.31;4991379;28;52743;-59
2022/02/17 03:25:37;;;;;;;;;2.00;2.00;;;;;-147.17;100.00;50237.72;4968802;28;51286;-60
2022/02/17 03:28:02;;;;;;;;;2.00;1.67;;;;;-147.17;100.00;50312.53;4991626;28;51531;-61
2022/02/17 03:30:28;;;;;;;;;2.67;1.00;;;;;-147.17;100.00;50312.53;4992347;28;51114;-60
2022/02/17 03:32:53;;;;;;;;;3.00;1.00;;;;;-147.17;100.00;50320.38;4994859;28;51117;-59
2022/02/17 03:35:18;;;;;;;;;4.00;3.33;;;;;-147.17;100.00;50265.28;4997358;28;50892;-59
2022/02/17 03:37:44;;;;;;;;;4.67;3.33;;;;;-147.17;100.00;50308.59;4991073;28;51354;-59
2022/02/17 03:40:09;;;;;;;;;4.00;3.00;;;;;-147.17;100.00;50284.97;4991503;28;51317;-60
2022/02/17 03:42:35;;;;;;;;;3.67;3.00;;;;;-147.17;100.00;50369.59;4992267;28;51241;-60
2022/02/17 03:45:01;;;;;;;;;4.33;2.00;;;;;-147.17;100.00;50338.09;4992461;28;50936;-61
2022/02/17 03:47:26;;;;;;;;;5.00;3.33;;;;;-147.17;100.00;50377.47;4990906;28;51920;-61
2022/02/17 03:49:52;;;;;;;;;3.67;2.00;;;;;-147.17;100.00;50391.25;4989192;28;51228;-59
2022/02/17 03:52:17;;;;;;;;;4.67;4.00;;;;;-147.17;100.00;50355.81;4992997;28;51535;-59
2022/02/17 03:54:42;;;;;;;;;3.00;2.00;;;;;-147.17;100.00;50401.09;4991400;28;51090;-59
2022/02/17 03:57:08;;;;;;;;;7.00;4.00;;;;;-147.17;100.00;50351.88;4974745;28;52217;-59
2022/02/17 03:59:33;;;;;;;;;5.00;4.00;;;;;-147.17;100.00;50344.00;4990970;28;51351;-59
2022/02/17 04:01:59;;;;;;;;;4.33;2.33;;;;;-147.17;100.00;50300.72;4992241;28;51290;-59
2022/02/17 04:04:25;;;;;;;;;2.33;2.00;;;;;-147.17;100.00;50294.81;4990940;28;51393;-59
2022/02/17 04:06:50;;;;;;;;;2.00;2.00;;;;;-147.17;100.00;50312.53;4990972;28;52166;-60
2022/02/17 04:09:16;;;;;;;;;5.00;3.00;;;;;-147.17;100.00;50286.94;4990124;28;51091;-61
2022/02/17 04:11:41;;;;;;;;;4.33;3.33;;;;;-147.17;100.00;50273.16;4992318;28;51549;-61
2022/02/17 04:14:06;;;;;;;;;4.33;2.67;;;;;-147.17;100.00;50233.78;4991514;28;51120;-60
2022/02/17 04:16:32;;;;;;;;;6.00;5.00;;;;;-147.17;100.00;50251.50;4987423;28;51250;-60
2022/02/17 04:18:58;;;;;;;;;3.00;2.67;;;;;-147.17;100.00;50245.59;4989711;28;51125;-60
2022/02/17 04:21:23;;;;;;;;;4.67;2.67;;;;;-147.17;100.00;50243.63;4990212;28;51136;-59
2022/02/17 04:23:49;;;;;;;;;6.33;3.33;;;;;-147.17;100.00;50259.38;4990122;28;51301;-59
2022/02/17 04:26:18;;;;;;;;;4.00;4.00;;;;;-147.17;100.00;50249.53;4991647;28;51064;-63
2022/02/17 04:28:45;;;;;;;;;5.00;3.00;;;;;-147.17;100.00;50283.00;4991040;28;51809;-60
2022/02/17 04:31:11;;;;;;;;;6.33;3.67;;;;;-147.17;100.00;50261.34;4990938;28;51337;-60
2022/02/17 04:33:39;;;;;;;;;6.33;4.00;;;;;-147.17;100.00;50284.97;4990886;28;51161;-60
2022/02/17 04:36:05;;;;;;;;;6.67;5.33;;;;;-147.17;100.00;50340.06;4999088;28;51764;-60
2022/02/17 04:38:30;;;;;;;;;7.67;5.00;;;;;-147.17;100.00;50359.75;4973233;28;51138;-60
2022/02/17 04:43:48;;;;;;;;;6.33;4.00;;;;;-147.17;100.00;50387.31;4974637;28;50971;-60
2022/02/17 04:46:14;;;;;;;;;6.33;4.00;;;;;-147.17;100.00;50377.47;4990987;28;51987;-60
2022/02/17 04:48:39;;;;;;;;;6.67;6.00;;;;;-147.17;100.00;50414.88;4991472;28;50886;-60
2022/02/17 04:51:05;;;;;;;;;5.00;4.00;;;;;-147.17;100.00;50454.25;4991480;28;51325;-60
2022/02/17 04:53:31;;;;;;;;;8.67;4.67;;;;;-147.17;100.00;50418.81;4974231;28;51383;-60
2022/02/17 04:55:57;;;;;;;;;7.33;6.00;;;;;-147.17;100.00;50418.81;4990716;28;54457;-60
2022/02/17 04:58:25;;;;;;;;;5.33;4.33;;;;;-147.17;100.00;50389.28;4991434;28;51168;-60
2022/02/17 05:00:51;;;;;;;;;5.33;4.33;;;;;-147.17;100.00;50416.84;4990036;28;51353;-59
2022/02/17 05:03:17;;;;;;;;;5.00;4.33;;;;;-147.17;100.00;50446.38;4990310;28;50954;-59
2022/02/17 05:05:42;;;;;;;;;4.33;4.00;;;;;-147.17;100.00;50446.38;4990809;28;51860;-59
2022/02/17 05:08:08;;;;;;;;;4.00;4.00;;;;;-147.17;100.00;50442.44;4990089;28;51089;-61
2022/02/17 05:10:35;;;;;;;;;6.00;3.33;;;;;-147.17;100.00;50418.81;4991518;28;51028;-60
2022/02/17 05:13:01;;;;;;;;;4.00;4.00;;;;;-147.17;100.00;50399.13;4973850;28;51446;-61
2022/02/17 05:15:26;;;;;;;;;5.00;3.33;;;;;-147.17;100.00;50418.81;4987783;28;52633;-59
2022/02/17 05:17:51;;;;;;;;;4.67;3.67;;;;;-147.17;100.00;50416.84;4990384;28;51162;-61
2022/02/17 05:20:18;;;;;;;;;6.00;5.00;;;;;-147.17;100.00;50477.88;4991094;28;51162;-61
2022/02/17 05:22:44;;;;;;;;;6.33;4.00;;;;;-147.17;100.00;50450.31;4990378;28;51333;-64
2022/02/17 05:25:10;;;;;;;;;5.67;4.00;;;;;-147.17;100.00;50446.38;4971708;28;51857;-61
2022/02/17 05:27:36;;;;;;;;;6.00;5.00;;;;;-147.17;100.00;50430.63;4989103;28;51507;-61
2022/02/17 05:30:03;;;;;;;;;7.33;5.33;;;;;-147.17;100.00;50414.88;4972374;28;51076;-59
2022/02/17 05:32:28;;;;;;;;;3.33;2.33;;;;;-147.17;99.74;50420.78;4991653;28;51017;-60
2022/02/17 05:34:54;;;;;;;;;7.00;5.33;;;;;-147.17;99.34;50489.69;4993241;28;52167;-60
2022/02/17 05:37:19;;;;;;;;;11.00;7.00;;;;;-147.17;99.71;50420.78;4993794;28;51102;-61
2022/02/17 05:39:44;;;;;;;;;11.00;6.67;;;;;-147.17;99.73;50450.31;4994356;28;52482;-60
2022/02/17 05:42:10;;;;;;;;;7.67;6.33;;;;;-147.17;99.10;50442.44;4995022;28;50957;-61
2022/02/17 05:44:35;;;;;;;;;10.00;6.00;;;;;-147.17;99.01;50454.25;4975358;28;51808;-61
2022/02/17 05:47:01;;;;;;;;;8.00;6.33;;;;;-147.17;97.63;50446.38;4993848;28;50955;-59
2022/02/17 05:49:26;;;;;;;;;7.00;6.00;;;;;-147.17;98.24;50432.59;4975799;28;51036;-58
2022/02/17 05:51:51;;;;;;;;;6.67;4.00;;;;;-147.17;97.82;50452.28;4995262;28;51962;-60
2022/02/17 05:54:17;;;;;;;;;5.33;4.00;;;;;-147.17;97.32;50434.56;4998829;28;51939;-60
2022/02/17 05:56:42;;;;;;;;;6.67;6.00;;;;;-147.17;97.85;50438.50;4977358;28;51660;-59
2022/02/17 05:59:07;;;;;;;;;13.33;11.00;;;;;-147.17;97.74;50458.19;4993671;28;51071;-60
2022/02/17 06:01:33;;;;;;;;;7.33;7.00;;;;;-147.17;98.04;50410.94;4993421;28;51455;-60
2022/02/17 06:03:58;;;;;;;;;13.67;11.00;;;;;-147.17;97.52;50434.56;4992390;28;51368;-60
2022/02/17 06:06:23;;;;;;;;;10.33;9.33;;;;;-147.17;97.91;50410.94;4992579;28;51008;-59
2022/02/17 06:08:49;;;;;;;;;10.00;7.33;;;;;-147.17;98.39;50434.56;4960426;28;51258;-59
2022/02/17 06:11:14;;;;;;;;;11.67;7.00;;;;;-147.17;98.79;50414.88;4993236;28;51294;-60
2022/02/17 06:13:40;;;;;;;;;14.33;11.33;;;;;-147.17;99.10;50424.72;4992158;28;51207;-60
2022/02/17 06:16:05;;;;;;;;;8.67;6.00;;;;;-147.17;99.71;50367.63;5000410;28;51148;-60
2022/02/17 06:18:30;;;;;;;;;11.00;8.00;;;;;-147.17;100.00;50365.66;4975695;28;51250;-61
2022/02/17 06:20:56;;;;;;;;;9.00;7.67;;;;;-147.17;100.00;50365.66;4994468;28;51186;-60
2022/02/17 06:23:21;;;;;;;;;13.33;9.00;;;;;-147.17;100.00;50397.16;4977167;28;52743;-60
2022/02/17 06:25:47;;;;;;;;;9.33;7.67;;;;;-147.17;100.00;50365.66;4993991;28;51140;-60
2022/02/17 06:28:13;;;;;;;;;5.00;4.00;;;;;-147.17;100.00;50357.78;4975439;28;51635;-61
2022/02/17 06:30:40;;;;;;;;;8.33;6.67;;;;;-147.17;100.00;50336.13;4994039;28;51045;-61
2022/02/17 06:33:07;;;;;;;;;13.33;10.67;;;;;-147.17;100.00;50316.44;4993416;28;51636;-59
2022/02/17 06:35:36;;;;;;;;;11.33;6.00;;;;;-147.17;100.00;50336.13;4987828;28;51455;-59
2022/02/17 06:38:03;;;;;;;;;7.67;7.00;;;;;-147.17;100.00;50288.91;4992122;28;51241;-60
2022/02/17 06:40:29;;;;;;;;;8.67;6.00;;;;;-147.17;100.00;50320.38;4975770;28;51358;-61
2022/02/17 06:42:55;;;;;;;;;7.00;5.00;;;;;-147.17;100.00;50281.03;4993014;28;51302;-59
2022/02/17 06:45:21;;;;;;;;;7.00;4.33;;;;;-147.17;100.00;50302.69;4992110;28;50977;-61
2022/02/17 06:47:46;;;;;;;;;11.67;9.67;;;;;-147.17;100.00;50261.34;4990293;28;51309;-60
2022/02/17 06:50:14;;;;;;;;;9.00;7.00;;;;;-147.17;100.00;50277.09;4992962;28;51222;-60
2022/02/17 06:52:41;;;;;;;;;13.33;8.33;;;;;-147.17;100.00;50253.47;4979886;28;53174;-59
2022/02/17 06:55:07;;;;;;;;;8.00;5.67;;;;;-147.17;100.00;50271.19;5005565;28;51302;-60
2022/02/17 06:57:32;;;;;;;;;8.00;7.00;;;;;-147.17;100.00;50269.22;4980274;28;51141;-60
2022/02/17 07:00:02;;;;;;;;;13.00;6.67;;;;;-147.17;100.00;50275.13;4992594;28;51021;-60
2022/02/17 07:02:31;;;;;;;;;5.33;5.00;;;;;-147.17;100.00;50257.41;4986241;28;51722;-62
2022/02/17 07:04:57;;;;;;;;;6.00;3.67;;;;;-147.17;100.00;50235.75;4993008;28;50996;-60
2022/02/17 07:07:22;;;;;;;;;9.67;7.00;;;;;-147.17;100.00;50292.84;4993463;28;50968;-60
2022/02/17 07:09:48;;;;;;;;;2.00;2.00;;;;;-147.17;100.00;50273.16;4992531;28;51096;-60
2022/02/17 07:12:14;;;;;;;;;9.00;6.00;;;;;-147.17;100.00;50294.81;4990958;28;51829;-59
2022/02/17 07:14:40;;;;;;;;;10.00;7.00;;;;;-147.17;100.00;50273.16;4970855;28;50914;-59
2022/02/17 07:17:06;;;;;;;;;9.33;6.00;;;;;-147.17;100.00;50300.72;4992706;28;51238;-59
2022/02/17 07:19:32;;;;;;;;;10.33;7.00;;;;;-147.17;100.00;50284.97;4990712;28;51304;-63
2022/02/17 07:21:57;;;;;;;;;13.33;10.00;;;;;-147.17;100.00;50247.56;4975111;28;52925;-61
2022/02/17 07:24:23;;;;;;;;;13.00;7.67;;;;;-147.17;100.00;50283.00;4993558;28;51119;-61
2022/02/17 07:26:49;;;;;;;;;12.00;9.67;;;;;-147.17;100.00;50314.47;4990701;28;51269;-61
2022/02/17 07:29:16;;;;;;;;;9.00;7.67;;;;;-147.17;100.00;50332.19;4991837;28;51311;-61
2022/02/17 07:31:42;;;;;;;;;11.33;6.00;;;;;-147.17;100.00;50310.56;4992596;28;52017;-61
2022/02/17 07:34:09;;;;;;;;;10.00;7.00;;;;;-147.17;100.00;50306.63;4992486;28;50956;-61
2022/02/17 07:36:34;;;;;;;;;11.33;10.00;;;;;-147.17;100.00;50306.63;4989829;28;51068;-62
2022/02/17 07:39:01;;;;;;;;;9.33;7.00;;;;;-147.17;100.00;50296.78;4992569;28;50933;-62
2022/02/17 07:41:26;;;;;;;;;8.33;6.00;;;;;-147.17;100.00;50332.19;4992451;28;51041;-62
2022/02/17 07:43:51;;;;;;;;;7.67;7.33;;;;;-147.17;100.00;50308.59;4991017;28;50937;-62
2022/02/17 07:46:17;;;;;;;;;7.67;7.00;;;;;-147.17;100.00;50324.31;4988451;28;51435;-62
2022/02/17 07:48:44;;;;;;;;;9.33;6.00;;;;;-147.17;99.45;50344.00;4968467;28;51158;-62
2022/02/17 07:51:10;;;;;;;;;8.67;6.33;;;;;-147.17;99.96;50314.47;4985097;28;51080;-61
2022/02/17 07:53:35;;;;;;;;;12.00;8.33;;;;;-147.17;100.00;50344.00;4989153;28;51127;-61
2022/02/17 07:56:01;;;;;;;;;12.00;8.67;;;;;-147.17;98.09;50377.47;4992129;28;51115;-61
2022/02/17 07:58:27;;;;;;;;;10.33;6.33;;;;;-147.17;98.90;50363.69;4986338;28;51085;-62
2022/02/17 08:00:53;;;;;;;;;9.67;8.67;;;;;-147.17;99.14;50345.97;4987877;28;51050;-63
2022/02/17 08:03:18;;;;;;;;;6.67;4.67;;;;;-147.17;99.56;50324.31;4985749;28;51007;-63
2022/02/17 08:05:45;;;;;;;;;11.33;7.00;;;;;-147.17;99.54;50298.75;4988053;28;50994;-62
2022/02/17 08:08:11;;;;;;;;;11.67;6.33;;;;;-147.17;100.00;50318.41;4990662;28;51329;-62
2022/02/17 08:10:37;;;;;;;;;11.33;7.00;;;;;-147.17;100.00;50320.38;4991340;28;52674;-63
2022/02/17 08:13:04;;;;;;;;;10.33;8.00;;;;;-147.17;99.29;50328.25;4983667;28;51103;-62
2022/02/17 08:15:30;;;;;;;;;23.75;18.50;;;;;-147.17;99.53;50312.53;4991355;28;51129;-61
2022/02/17 08:17:55;;;;;;;;;12.33;7.33;;;;;-147.17;99.64;50314.47;4991597;28;51071;-62
2022/02/17 08:20:21;;;;;;;;;12.00;6.00;;;;;-147.17;98.76;50340.06;4974069;28;52840;-62
2022/02/17 08:22:51;;;;;;;;;12.33;7.33;;;;;-147.17;97.54;50338.09;4993790;28;51018;-62
2022/02/17 08:25:20;;;;;;;;;11.67;6.67;;;;;-147.17;97.27;50349.91;4994630;28;51229;-61
2022/02/17 08:27:46;;;;;;;;;8.00;7.67;;;;;-147.17;96.52;50355.81;4991270;28;51396;-61
2022/02/17 08:30:12;;;;;;;;;11.67;7.67;;;;;-147.17;97.15;50367.63;4990335;28;53843;-61
2022/02/17 08:32:39;;;;;;;;;16.00;10.33;;;;;-147.17;97.82;50342.03;4965834;28;51073;-63
2022/02/17 08:35:06;;;;;;;;;14.67;6.00;;;;;-147.17;97.88;50345.97;4992083;28;51186;-62
2022/02/17 08:37:32;;;;;;;;;13.33;9.33;;;;;-147.17;98.14;50347.94;4972275;28;51327;-61
2022/02/17 08:39:57;;;;;;;;;10.67;7.33;;;;;-147.17;98.31;50336.13;4991741;28;51842;-62
2022/02/17 08:42:22;;;;;;;;;10.33;8.00;;;;;-147.17;98.43;50328.25;4964598;28;51111;-62
2022/02/17 08:44:48;;;;;;;;;8.33;7.00;;;;;-147.17;97.67;50332.19;4997674;28;51448;-62
2022/02/17 08:47:15;;;;;;;;;10.00;6.00;;;;;-147.17;97.89;50304.66;4998633;28;51059;-62
2022/02/17 08:49:42;;;;;;;;;11.67;8.33;;;;;-147.17;99.42;50286.94;4987998;28;51872;-61
2022/02/17 08:52:07;;;;;;;;;11.33;8.00;;;;;-147.17;97.79;50312.53;4987593;28;53696;-61
2022/02/17 08:54:33;;;;;;;;;10.00;8.00;;;;;-147.17;96.07;50344.00;4993769;28;51151;-61
2022/02/17 08:56:59;;;;;;;;;8.67;6.00;;;;;-147.17;94.71;50389.28;4992200;28;51674;-61
2022/02/17 08:59:25;;;;;;;;;10.00;8.67;;;;;-147.17;93.59;50399.13;4984023;28;51928;-62
2022/02/17 09:01:51;;;;;;;;;13.00;10.00;;;;;-147.17;88.56;50536.94;4958554;28;51111;-63
2022/02/17 09:04:17;;;;;;;;;13.33;11.00;;;;;-147.17;85.96;50576.31;4991504;28;51200;-63
2022/02/17 09:06:42;;;;;;;;;14.00;12.33;;;;;-147.17;86.71;50601.91;4990681;28;51378;-64
2022/02/17 09:09:08;;;;;;;;;10.00;8.00;;;;;-147.17;87.04;50552.69;4989980;28;52650;-64
2022/02/17 09:11:33;;;;;;;;;11.33;7.33;;;;;-147.17;86.58;50558.59;4984459;28;50935;-64
2022/02/17 09:13:58;;;;;;;;;14.33;14.00;;;;;-147.17;85.36;50576.31;4990727;28;51164;-64
2022/02/17 09:16:24;;;;;;;;;12.33;10.33;;;;;-147.17;85.98;50596.00;4992802;28;51043;-63
2022/02/17 09:18:49;;;;;;;;;10.67;7.00;;;;;-147.17;88.38;50493.63;4992017;28;51729;-63
2022/02/17 09:21:16;;;;;;;;;12.00;8.33;;;;;-147.17;87.35;50560.56;4974808;28;51122;-63
2022/02/17 09:23:41;;;;;;;;;13.67;10.00;;;;;-147.17;86.56;50556.63;4996963;28;50935;-63
2022/02/17 09:26:08;;;;;;;;;8.00;7.00;;;;;-147.17;87.16;50597.97;4992904;28;51074;-63
2022/02/17 09:28:35;;;;;;;;;10.00;9.67;;;;;-147.17;86.66;50552.69;4991342;28;51733;-63
2022/02/17 09:31:00;;;;;;;;;27.00;25.50;;;;;-147.17;86.57;50544.81;4992322;28;51047;-62
2022/02/17 09:33:26;;;;;;;;;16.67;14.00;;;;;-147.17;86.37;50540.88;4992427;28;51789;-63
2022/02/17 09:35:53;;;;;;;;;11.67;9.33;;;;;-147.17;87.14;50536.94;4974932;28;51256;-64
2022/02/17 09:38:19;;;;;;;;;15.33;11.00;;;;;-147.17;87.22;50517.25;4991878;28;51120;-63
2022/02/17 09:40:46;;;;;;;;;8.33;6.33;;;;;-147.17;87.47;50564.50;4992001;28;51042;-64
2022/02/17 09:43:12;;;;;;;;;11.33;9.00;;;;;-147.17;88.29;50479.84;4992073;28;51202;-63
2022/02/17 09:45:43;;;;;;;;;14.00;10.67;;;;;-147.17;87.98;50533.00;4992350;28;50949;-64
2022/02/17 09:48:10;;;;;;;;;9.00;7.33;;;;;-147.17;88.53;50529.06;4991847;28;53216;-64
2022/02/17 09:50:35;;;;;;;;;9.33;4.67;;;;;-147.17;87.99;50503.47;4974354;28;51220;-64
2022/02/17 09:53:02;;;;;;;;;11.00;10.67;;;;;-147.17;89.18;50505.44;4991865;28;51102;-64
2022/02/17 09:55:28;;;;;;;;;12.33;10.33;;;;;-147.17;89.56;50454.25;4994368;28;50968;-64
2022/02/17 09:57:53;;;;;;;;;13.67;11.33;;;;;-147.17;91.75;50420.78;4970105;28;51733;-63
2022/02/17 10:00:19;;;;;;;;;16.00;10.67;;;;;-147.17;90.59;50446.38;4991825;28;51102;-64
2022/02/17 10:02:44;;;;;;;;;11.33;10.00;;;;;-147.17;86.25;50564.50;4992175;28;51139;-66
2022/02/17 10:05:14;;;;;;;;;10.33;9.00;;;;;-147.17;83.12;50653.09;4991986;28;51318;-63
2022/02/17 10:07:42;;;;;;;;;11.00;9.00;;;;;-147.17;82.53;50690.50;4991140;28;51168;-66
2022/02/17 10:10:10;;;;;;;;;15.33;14.00;;;;;-147.17;79.54;50800.75;4984021;28;51290;-65
2022/02/17 10:12:54;;;;;;;;;13.00;10.67;;;;;-147.17;77.76;50857.84;4991818;28;51146;-65
2022/02/17 10:15:30;;;;;;;;;10.33;10.33;;;;;-147.17;77.39;50863.75;4991528;28;50893;-64
2022/02/17 10:18:12;;;;;;;;;11.33;9.67;;;;;-147.17;76.44;50881.47;4973273;28;52220;-63
2022/02/17 10:20:58;;;;;;;;;9.33;8.00;;;;;-147.17;76.34;50867.69;4992960;28;51046;-65
2022/02/17 10:23:30;;;;;;;;;7.00;7.00;;;;;-147.17;74.84;50958.25;4995134;28;51146;-65
2022/02/17 10:26:19;;;;;;;;;3.00;2.00;;;;;-147.17;74.96;50946.44;4994937;28;51094;-65
2022/02/17 10:28:59;;;;;;;;;10.33;6.33;;;;;-147.17;75.04;50914.94;4971565;28;52896;-65
2022/02/17 10:31:26;;;;;;;;;9.67;7.00;;;;;-147.17;75.61;50871.63;4970569;28;51264;-65
2022/02/17 10:33:54;;;;;;;;;10.67;7.00;;;;;-147.17;77.39;50737.75;4991498;28;51026;-64
2022/02/17 10:36:35;;;;;;;;;10.00;9.00;;;;;-147.17;75.78;50796.81;4987074;28;51158;-64
2022/02/17 10:39:27;;;;;;;;;8.67;7.67;;;;;-147.17;75.17;50924.78;4986445;28;51890;-65
2022/02/17 10:42:02;;;;;;;;;10.00;9.00;;;;;-147.17;74.51;50946.44;4983586;28;51195;-65
2022/02/17 10:44:31;;;;;;;;;9.00;8.33;;;;;-147.17;74.68;50857.84;4993485;28;51141;-65
2022/02/17 10:47:10;;;;;;;;;13.67;8.33;;;;;-147.17;74.85;50907.06;4992542;28;51046;-65
2022/02/17 10:49:41;;;;;;;;;10.67;7.67;;;;;-147.17;75.70;50786.97;4992817;28;51084;-65
2022/02/17 10:52:07;;;;;;;;;10.00;9.00;;;;;-147.17;71.95;50995.66;4975057;28;51088;-65
2022/02/17 10:54:32;;;;;;;;;10.67;9.33;;;;;-147.17;71.80;50956.28;4989425;28;51287;-64
2022/02/17 10:57:03;;;;;;;;;9.67;8.67;;;;;-147.17;73.94;50863.75;4991490;28;51214;-64
2022/02/17 11:02:20;;;;;;;;;6.67;6.00;;;;;-147.17;72.81;51019.28;4992731;28;51089;-64
2022/02/17 11:04:46;;;;;;;;;8.67;6.67;;;;;-147.17;69.56;51135.44;4991120;28;51139;-64
2022/02/17 11:07:12;;;;;;;;;14.67;13.67;;;;;-147.17;70.34;51092.13;4988959;28;51195;-65
2022/02/17 11:09:40;;;;;;;;;8.67;8.00;;;;;-147.17;69.90;51052.75;4990284;28;51082;-64
2022/02/17 11:12:06;;;;;;;;;6.67;5.67;;;;;-147.17;69.38;51086.22;4985491;28;51139;-64